createdAt,value
2019-01-13T00:00:38.904Z,15.80
2019-01-13T00:03:05.688Z,16.70
2019-01-13T00:05:32.514Z,16.87
2019-01-13T00:07:59.301Z,17.10
2019-01-13T00:10:25.908Z,15.93
2019-01-13T00:12:52.495Z,15.47
2019-01-13T00:15:19.070Z,16.00
2019-01-13T00:17:45.636Z,17.07
2019-01-13T00:20:12.400Z,16.47
2019-01-13T00:22:39.010Z,14.93
2019-01-13T00:25:06.297Z,15.87
2019-01-13T00:27:32.817Z,14.63
2019-01-13T00:29:59.450Z,15.63
2019-01-13T00:32:26.081Z,16.00
2019-01-13T00:34:52.536Z,16.43
2019-01-13T00:37:19.123Z,17.23
2019-01-13T00:39:45.558Z,16.20
2019-01-13T00:42:12.197Z,16.93
2019-01-13T00:44:38.598Z,17.43
2019-01-13T00:47:05.239Z,18.57
2019-01-13T00:49:31.836Z,19.63
2019-01-13T00:51:58.520Z,20.30
2019-01-13T00:54:26.917Z,20.93
2019-01-13T00:56:53.427Z,20.50
2019-01-13T00:59:20.117Z,21.67
2019-01-13T01:01:53.237Z,22.33
2019-01-13T01:04:20.116Z,20.00
2019-01-13T01:06:46.945Z,21.73
2019-01-13T01:09:13.477Z,22.43
2019-01-13T01:11:40.054Z,21.80
2019-01-13T01:14:06.846Z,21.00
2019-01-13T01:16:33.469Z,20.20
2019-01-13T01:19:00.094Z,21.23
2019-01-13T01:21:26.479Z,21.37
2019-01-13T01:23:52.999Z,21.07
2019-01-13T01:26:19.497Z,20.73
2019-01-13T01:28:46.035Z,21.20
2019-01-13T01:31:12.750Z,20.27
2019-01-13T01:33:39.171Z,21.83
2019-01-13T01:36:05.880Z,19.57
2019-01-13T01:38:32.502Z,19.67
2019-01-13T01:40:59.139Z,20.13
2019-01-13T01:43:25.643Z,20.40
2019-01-13T01:45:54.153Z,20.07
2019-01-13T01:48:20.691Z,21.13
2019-01-13T01:50:47.402Z,22.17
2019-01-13T01:53:13.911Z,21.57
2019-01-13T01:55:40.470Z,21.80
2019-01-13T01:58:07.421Z,23.17
2019-01-13T02:00:40.357Z,24.73
2019-01-13T02:03:02.952Z,23.17
2019-01-13T02:05:29.492Z,24.40
2019-01-13T02:07:57.795Z,23.10
2019-01-13T02:10:24.462Z,23.80
2019-01-13T02:12:51.217Z,23.67
2019-01-13T02:15:21.839Z,25.00
2019-01-13T02:17:48.586Z,24.70
2019-01-13T02:20:17.771Z,24.43
2019-01-13T02:22:45.726Z,25.47
2019-01-13T02:25:16.637Z,24.50
2019-01-13T02:27:43.341Z,24.97
2019-01-13T02:30:14.521Z,24.57
2019-01-13T02:32:40.926Z,25.23
2019-01-13T02:35:08.245Z,23.80
2019-01-13T02:37:34.843Z,26.23
2019-01-13T02:40:01.579Z,25.90
2019-01-13T02:42:28.165Z,25.67
2019-01-13T02:44:54.700Z,25.30
2019-01-13T02:47:21.020Z,27.43
2019-01-13T02:49:47.467Z,26.53
2019-01-13T02:52:13.970Z,26.40
2019-01-13T02:54:40.440Z,28.40
2019-01-13T02:57:06.935Z,27.47
2019-01-13T02:59:33.536Z,26.87
2019-01-13T03:02:00.032Z,28.60
2019-01-13T03:04:26.525Z,28.80
2019-01-13T03:06:53.036Z,30.10
2019-01-13T03:09:19.420Z,32.10
2019-01-13T03:11:45.908Z,33.23
2019-01-13T03:14:12.426Z,33.30
2019-01-13T03:16:38.909Z,33.07
2019-01-13T03:19:05.523Z,32.67
2019-01-13T03:21:32.057Z,33.30
2019-01-13T03:23:58.443Z,32.83
2019-01-13T03:26:24.972Z,30.03
2019-01-13T03:28:51.466Z,30.63
2019-01-13T03:31:18.001Z,30.77
2019-01-13T03:33:44.351Z,29.97
2019-01-13T03:36:10.870Z,31.17
2019-01-13T03:38:37.466Z,32.87
2019-01-13T03:41:03.955Z,30.47
2019-01-13T03:43:30.474Z,29.93
2019-01-13T03:45:56.968Z,29.63
2019-01-13T03:48:23.374Z,28.83
2019-01-13T03:50:49.985Z,28.97
2019-01-13T03:53:16.494Z,27.73
2019-01-13T03:55:42.894Z,27.20
2019-01-13T03:58:11.158Z,27.23
2019-01-13T04:00:37.941Z,26.00
2019-01-13T04:03:04.552Z,22.23
2019-01-13T04:05:31.043Z,20.73
2019-01-13T04:07:57.430Z,19.27
2019-01-13T04:10:23.868Z,20.03
2019-01-13T04:12:50.372Z,17.70
2019-01-13T04:15:31.065Z,17.47
2019-01-13T04:17:59.210Z,15.77
2019-01-13T04:20:25.744Z,14.93
2019-01-13T04:22:52.541Z,14.47
2019-01-13T04:25:18.988Z,14.10
2019-01-13T04:27:45.387Z,13.13
2019-01-13T04:30:12.756Z,12.03
2019-01-13T04:32:39.176Z,12.87
2019-01-13T04:35:06.942Z,12.97
2019-01-13T04:37:33.365Z,13.53
2019-01-13T04:39:59.702Z,11.97
2019-01-13T04:42:26.112Z,13.03
2019-01-13T04:44:52.603Z,13.93
2019-01-13T04:47:19.141Z,14.10
2019-01-13T04:49:45.748Z,15.37
2019-01-13T04:52:12.127Z,14.93
2019-01-13T04:54:38.522Z,13.90
2019-01-13T04:57:04.890Z,15.60
2019-01-13T04:59:31.207Z,14.07
2019-01-13T05:01:57.808Z,14.77
2019-01-13T05:04:24.346Z,15.03
2019-01-13T05:06:50.926Z,15.50
2019-01-13T05:09:17.538Z,15.37
2019-01-13T05:11:43.932Z,15.80
2019-01-13T05:14:10.540Z,15.67
2019-01-13T05:16:36.840Z,15.97
2019-01-13T05:19:03.452Z,16.23
2019-01-13T05:21:30.191Z,15.50
2019-01-13T05:23:56.587Z,17.10
2019-01-13T05:26:23.091Z,17.00
2019-01-13T05:28:49.500Z,19.10
2019-01-13T05:31:16.009Z,19.73
2019-01-13T05:33:42.401Z,20.57
2019-01-13T05:36:08.786Z,21.77
2019-01-13T05:38:35.201Z,22.60
2019-01-13T05:41:01.596Z,22.07
2019-01-13T05:43:27.921Z,23.93
2019-01-13T05:45:54.411Z,23.10
2019-01-13T05:48:20.686Z,23.80
2019-01-13T05:50:47.125Z,23.20
2019-01-13T05:53:13.493Z,24.23
2019-01-13T05:55:40.159Z,25.13
2019-01-13T05:58:06.638Z,25.80
2019-01-13T06:00:35.026Z,26.67
2019-01-13T06:03:01.524Z,27.77
2019-01-13T06:05:27.918Z,27.83
2019-01-13T06:07:54.447Z,27.40
2019-01-13T06:10:21.043Z,25.53
2019-01-13T06:12:47.657Z,26.27
2019-01-13T06:15:20.000Z,25.77
2019-01-13T06:17:46.640Z,25.00
2019-01-13T06:20:18.770Z,23.80
2019-01-13T06:22:45.397Z,22.93
2019-01-13T06:25:12.391Z,23.50
2019-01-13T06:27:39.002Z,21.40
2019-01-13T06:30:13.290Z,19.37
2019-01-13T06:32:39.815Z,17.73
2019-01-13T06:35:06.521Z,17.67
2019-01-13T06:37:33.238Z,16.27
2019-01-13T06:39:59.754Z,16.23
2019-01-13T06:42:26.152Z,15.00
2019-01-13T06:44:52.478Z,14.37
2019-01-13T06:47:19.005Z,13.83
2019-01-13T06:49:45.413Z,12.17
2019-01-13T06:52:11.944Z,12.40
2019-01-13T06:54:38.500Z,12.27
2019-01-13T06:57:05.116Z,12.10
2019-01-13T06:59:31.568Z,11.40
2019-01-13T07:02:03.375Z,11.57
2019-01-13T07:04:26.087Z,10.60
2019-01-13T07:06:52.614Z,8.80
2019-01-13T07:09:18.989Z,7.93
2019-01-13T07:11:45.615Z,8.57
2019-01-13T07:14:11.998Z,8.30
2019-01-13T07:16:38.571Z,7.40
2019-01-13T07:19:05.055Z,6.93
2019-01-13T07:21:31.451Z,7.57
2019-01-13T07:23:57.963Z,6.83
2019-01-13T07:26:24.488Z,6.90
2019-01-13T07:28:51.025Z,7.27
2019-01-13T07:31:17.554Z,6.43
2019-01-13T07:33:43.971Z,6.20
2019-01-13T07:36:10.393Z,6.07
2019-01-13T07:38:36.985Z,7.00
2019-01-13T07:41:03.525Z,6.47
2019-01-13T07:43:30.029Z,6.70
2019-01-13T07:45:56.648Z,7.03
2019-01-13T07:48:22.918Z,6.20
2019-01-13T07:50:49.227Z,5.60
2019-01-13T07:53:15.766Z,6.23
2019-01-13T07:55:42.365Z,6.27
2019-01-13T07:58:08.780Z,6.40
2019-01-13T08:00:35.396Z,6.90
2019-01-13T08:03:02.359Z,7.33
2019-01-13T08:05:28.958Z,7.40
2019-01-13T08:07:55.558Z,7.23
2019-01-13T08:10:22.117Z,6.80
2019-01-13T08:12:48.560Z,7.23
2019-01-13T08:15:20.243Z,7.00
2019-01-13T08:17:46.777Z,8.03
2019-01-13T08:20:21.342Z,7.70
2019-01-13T08:22:47.899Z,8.07
2019-01-13T08:25:14.548Z,7.60
2019-01-13T08:27:41.103Z,8.00
2019-01-13T08:30:12.749Z,8.40
2019-01-13T08:32:39.200Z,8.43
2019-01-13T08:35:05.964Z,9.13
2019-01-13T08:37:32.543Z,9.43
2019-01-13T08:39:58.978Z,9.30
2019-01-13T08:42:25.301Z,10.13
2019-01-13T08:44:51.713Z,8.97
2019-01-13T08:47:18.326Z,10.07
2019-01-13T08:49:44.868Z,10.50
2019-01-13T08:52:11.472Z,11.00
2019-01-13T08:54:38.023Z,11.50
2019-01-13T08:57:04.637Z,11.13
2019-01-13T08:59:31.054Z,10.80
2019-01-13T09:01:57.593Z,10.93
2019-01-13T09:04:24.286Z,10.47
2019-01-13T09:06:50.803Z,11.43
2019-01-13T09:09:17.489Z,11.40
2019-01-13T09:11:44.132Z,10.57
2019-01-13T09:14:10.643Z,11.40
2019-01-13T09:16:37.293Z,11.03
2019-01-13T09:19:03.868Z,11.70
2019-01-13T09:21:30.633Z,11.47
2019-01-13T09:23:57.163Z,12.20
2019-01-13T09:26:23.774Z,11.73
2019-01-13T09:28:50.472Z,10.97
2019-01-13T09:31:17.319Z,10.67
2019-01-13T09:33:43.953Z,10.47
2019-01-13T09:36:10.460Z,11.00
2019-01-13T09:38:37.149Z,11.33
2019-01-13T09:41:04.075Z,11.67
2019-01-13T09:43:30.708Z,12.03
2019-01-13T09:45:57.541Z,11.67
2019-01-13T09:48:24.147Z,11.53
2019-01-13T09:50:50.942Z,11.70
2019-01-13T09:53:17.518Z,10.93
2019-01-13T09:55:44.198Z,10.47
2019-01-13T09:58:10.846Z,10.50
2019-01-13T10:00:37.664Z,10.00
2019-01-13T10:03:04.431Z,11.13
2019-01-13T10:05:31.066Z,11.67
2019-01-13T10:07:57.416Z,12.67
2019-01-13T10:10:24.035Z,13.00
2019-01-13T10:12:50.775Z,14.10
2019-01-13T10:15:21.558Z,13.83
2019-01-13T10:17:48.297Z,15.13
2019-01-13T10:20:15.229Z,16.10
2019-01-13T10:22:41.886Z,15.10
2019-01-13T10:25:10.104Z,16.43
2019-01-13T10:27:36.957Z,18.33
2019-01-13T10:30:17.686Z,18.10
2019-01-13T10:32:44.419Z,17.20
2019-01-13T10:35:11.250Z,18.07
2019-01-13T10:37:37.902Z,17.63
2019-01-13T10:40:15.654Z,18.07
2019-01-13T10:42:42.362Z,18.47
2019-01-13T10:45:12.587Z,18.27
2019-01-13T10:47:39.197Z,17.70
2019-01-13T10:50:17.372Z,18.50
2019-01-13T10:52:44.384Z,16.73
2019-01-13T10:55:11.131Z,17.30
2019-01-13T10:57:37.819Z,18.73
2019-01-13T11:00:21.934Z,17.13
2019-01-13T11:02:48.618Z,17.07
2019-01-13T11:05:15.370Z,17.07
2019-01-13T11:07:42.001Z,15.87
2019-01-13T11:10:15.932Z,16.77
2019-01-13T11:12:42.917Z,14.90
2019-01-13T11:15:21.218Z,15.20
2019-01-13T11:17:43.147Z,14.13
2019-01-13T11:20:20.267Z,13.97
2019-01-13T11:22:46.856Z,13.87
2019-01-13T11:25:14.008Z,13.43
2019-01-13T11:27:40.572Z,12.97
2019-01-13T11:30:14.970Z,11.20
2019-01-13T11:32:41.713Z,11.23
2019-01-13T11:35:10.592Z,11.47
2019-01-13T11:37:37.284Z,12.00
2019-01-13T11:40:14.039Z,12.20
2019-01-13T11:42:40.683Z,11.10
2019-01-13T11:45:09.020Z,12.13
2019-01-13T11:47:35.631Z,12.60
2019-01-13T11:50:05.873Z,12.00
2019-01-13T11:52:32.524Z,11.10
2019-01-13T11:54:59.252Z,11.57
2019-01-13T11:57:25.915Z,11.50
2019-01-13T11:59:52.520Z,9.90
2019-01-13T12:02:19.065Z,9.67
2019-01-13T12:04:45.505Z,10.10
2019-01-13T12:07:11.957Z,8.50
2019-01-13T12:09:38.924Z,8.77
2019-01-13T12:12:05.727Z,8.43
2019-01-13T12:14:32.359Z,8.10
2019-01-13T12:16:59.064Z,9.00
2019-01-13T12:19:25.487Z,8.17
2019-01-13T12:21:52.003Z,8.27
2019-01-13T12:24:18.536Z,7.37
2019-01-13T12:26:45.157Z,8.63
2019-01-13T12:29:11.696Z,8.23
2019-01-13T12:31:38.340Z,7.27
2019-01-13T12:34:05.041Z,7.47
2019-01-13T12:36:31.709Z,7.53
2019-01-13T12:38:58.330Z,8.37
2019-01-13T12:41:25.026Z,8.13
2019-01-13T12:43:51.751Z,8.03
2019-01-13T12:46:18.381Z,7.47
2019-01-13T12:48:45.016Z,7.27
2019-01-13T12:51:11.640Z,7.63
2019-01-13T12:53:38.262Z,7.60
2019-01-13T12:56:04.897Z,7.40
2019-01-13T12:58:31.504Z,7.37
2019-01-13T13:00:57.972Z,7.93
2019-01-13T13:03:31.413Z,7.87
2019-01-13T13:05:53.068Z,7.83
2019-01-13T13:08:19.757Z,7.80
2019-01-13T13:10:46.500Z,7.73
2019-01-13T13:13:13.238Z,8.13
2019-01-13T13:15:39.899Z,7.80
2019-01-13T13:18:06.775Z,8.87
2019-01-13T13:20:33.616Z,7.20
2019-01-13T13:23:00.395Z,8.13
2019-01-13T13:25:31.853Z,8.30
2019-01-13T13:27:55.761Z,8.03
2019-01-13T13:30:26.728Z,8.23
2019-01-13T13:32:53.880Z,9.00
2019-01-13T13:35:20.804Z,8.93
2019-01-13T13:37:47.474Z,8.40
2019-01-13T13:40:17.881Z,7.80
2019-01-13T13:42:44.820Z,8.57
2019-01-13T13:45:11.563Z,8.27
2019-01-13T13:47:38.226Z,6.90
2019-01-13T13:50:09.972Z,7.07
2019-01-13T13:52:36.676Z,6.93
2019-01-13T13:55:07.325Z,7.10
2019-01-13T13:57:34.005Z,7.30
2019-01-13T14:00:00.576Z,7.20
2019-01-13T14:02:27.230Z,7.17
2019-01-13T14:04:53.796Z,6.27
2019-01-13T14:07:20.454Z,7.90
2019-01-13T14:09:47.209Z,8.00
2019-01-13T14:12:13.820Z,8.20
2019-01-13T14:14:40.305Z,7.93
2019-01-13T14:17:06.815Z,7.97
2019-01-13T14:19:33.476Z,7.67
2019-01-13T14:22:00.307Z,8.23
2019-01-13T14:24:26.955Z,8.27
2019-01-13T14:26:53.645Z,7.83
2019-01-13T14:29:20.187Z,7.13
2019-01-13T14:31:46.815Z,7.37
2019-01-13T14:34:13.316Z,7.30
2019-01-13T14:36:39.715Z,7.50
2019-01-13T14:39:06.859Z,6.90
2019-01-13T14:41:33.384Z,7.20
2019-01-13T14:43:59.941Z,7.00
2019-01-13T14:46:26.501Z,5.93
2019-01-13T14:48:53.176Z,6.60
2019-01-13T14:51:19.809Z,6.40
2019-01-13T14:53:46.390Z,7.03
2019-01-13T14:56:12.947Z,6.83
2019-01-13T14:58:39.370Z,6.10
2019-01-13T15:01:06.125Z,7.00
2019-01-13T15:03:32.787Z,6.70
2019-01-13T15:05:59.285Z,7.13
2019-01-13T15:08:25.942Z,6.13
2019-01-13T15:10:54.649Z,6.47
2019-01-13T15:13:21.277Z,6.43
2019-01-13T15:15:47.835Z,6.40
2019-01-13T15:18:14.685Z,6.17
2019-01-13T15:20:41.268Z,6.47
2019-01-13T15:23:08.005Z,6.83
2019-01-13T15:25:34.760Z,7.23
2019-01-13T15:28:01.736Z,8.07
2019-01-13T15:30:34.664Z,7.30
2019-01-13T15:33:01.679Z,8.30
2019-01-13T15:35:28.442Z,9.73
2019-01-13T15:37:55.276Z,8.93
2019-01-13T15:40:22.662Z,9.40
2019-01-13T15:42:49.939Z,10.03
2019-01-13T15:45:16.884Z,9.27
2019-01-13T15:47:43.838Z,10.10
2019-01-13T15:50:25.457Z,9.83
2019-01-13T15:52:52.431Z,10.37
2019-01-13T15:55:19.607Z,10.63
2019-01-13T15:57:46.680Z,10.20
2019-01-13T16:00:20.946Z,9.83
2019-01-13T16:02:49.409Z,10.40
2019-01-13T16:05:17.737Z,11.57
2019-01-13T16:07:44.543Z,9.93
2019-01-13T16:10:16.381Z,11.07
2019-01-13T16:12:43.151Z,10.03
2019-01-13T16:15:11.494Z,11.30
2019-01-13T16:17:38.329Z,12.67
2019-01-13T16:20:16.338Z,10.97
2019-01-13T16:22:43.049Z,11.53
2019-01-13T16:25:09.739Z,11.60
2019-01-13T16:27:36.545Z,10.83
2019-01-13T16:30:14.117Z,10.20
2019-01-13T16:32:41.011Z,10.23
2019-01-13T16:35:08.089Z,10.63
2019-01-13T16:37:34.768Z,9.67
2019-01-13T16:40:01.665Z,10.40
2019-01-13T16:42:28.249Z,9.97
2019-01-13T16:44:55.084Z,9.80
2019-01-13T16:47:21.723Z,9.50
2019-01-13T16:49:48.189Z,9.60
2019-01-13T16:52:15.256Z,16.30
2019-01-13T16:54:41.926Z,7.97
2019-01-13T16:57:08.849Z,7.53
2019-01-13T16:59:35.482Z,7.43
2019-01-13T17:02:02.137Z,6.97
2019-01-13T17:04:29.186Z,7.33
2019-01-13T17:06:55.915Z,7.10
2019-01-13T17:09:22.667Z,8.00
2019-01-13T17:11:49.459Z,7.57
2019-01-13T17:14:16.366Z,7.17
2019-01-13T17:16:42.881Z,7.27
2019-01-13T17:19:10.320Z,7.53
2019-01-13T17:21:37.375Z,8.43
2019-01-13T17:24:04.289Z,8.10
2019-01-13T17:26:31.051Z,7.67
2019-01-13T17:28:57.898Z,8.07
2019-01-13T17:31:25.009Z,8.17
2019-01-13T17:33:51.862Z,7.80
2019-01-13T17:36:18.757Z,7.07
2019-01-13T17:38:45.442Z,7.03
2019-01-13T17:41:12.218Z,6.67
2019-01-13T17:43:39.461Z,7.47
2019-01-13T17:46:06.473Z,7.70
2019-01-13T17:48:33.937Z,6.60
2019-01-13T17:51:01.246Z,2.90
2019-01-13T17:53:28.204Z,2.13
2019-01-13T17:55:55.186Z,2.37
2019-01-13T17:58:22.739Z,2.10
2019-01-13T18:00:52.609Z,2.37
2019-01-13T18:03:24.732Z,2.27
2019-01-13T18:05:51.737Z,2.20
2019-01-13T18:08:19.380Z,1.57
2019-01-13T18:10:46.079Z,2.03
2019-01-13T18:13:12.868Z,2.00
2019-01-13T18:15:39.772Z,2.37
2019-01-13T18:18:06.997Z,2.00
2019-01-13T18:20:33.812Z,1.97
2019-01-13T18:23:00.680Z,1.93
2019-01-13T18:25:27.604Z,2.20
2019-01-13T18:27:54.355Z,13.60
2019-01-13T18:30:25.157Z,4.50
2019-01-13T18:32:51.934Z,2.50
2019-01-13T18:35:20.985Z,2.67
2019-01-13T18:37:48.068Z,3.33
2019-01-13T18:40:18.630Z,2.80
2019-01-13T18:42:45.485Z,3.27
2019-01-13T18:45:14.277Z,2.73
2019-01-13T18:47:41.113Z,2.83
2019-01-13T18:50:14.527Z,3.33
2019-01-13T18:52:45.081Z,2.63
2019-01-13T18:55:12.748Z,3.00
2019-01-13T18:57:39.789Z,3.30
2019-01-13T19:00:12.007Z,2.70
2019-01-13T19:02:38.710Z,3.33
2019-01-13T19:05:10.422Z,2.57
2019-01-13T19:07:37.031Z,3.27
2019-01-13T19:10:36.092Z,3.93
2019-01-13T19:13:11.356Z,3.27
2019-01-13T19:15:38.167Z,3.30
2019-01-13T19:18:04.901Z,3.27
2019-01-13T19:20:31.729Z,3.40
2019-01-13T19:22:59.217Z,3.57
2019-01-13T19:25:26.083Z,3.27
2019-01-13T19:27:52.950Z,3.30
2019-01-13T19:30:19.816Z,3.20
2019-01-13T19:32:46.624Z,3.90
2019-01-13T19:35:15.753Z,3.10
2019-01-13T19:37:42.560Z,3.63
2019-01-13T19:40:16.130Z,3.27
2019-01-13T19:42:43.284Z,3.50
2019-01-13T19:45:16.452Z,3.93
2019-01-13T19:47:43.123Z,3.57
2019-01-13T19:50:14.830Z,4.03
2019-01-13T19:52:41.466Z,4.37
2019-01-13T19:55:12.218Z,4.10
2019-01-13T19:57:38.938Z,4.23
2019-01-13T20:00:17.220Z,3.27
2019-01-13T20:02:44.001Z,4.43
2019-01-13T20:05:11.968Z,3.23
2019-01-13T20:07:38.858Z,4.03
2019-01-13T20:10:10.036Z,3.93
2019-01-13T20:12:36.650Z,3.13
2019-01-13T20:15:08.608Z,3.60
2019-01-13T20:17:35.215Z,3.27
2019-01-13T20:20:05.616Z,3.90
2019-01-13T20:22:32.379Z,3.90
2019-01-13T20:24:59.191Z,3.73
2019-01-13T20:27:25.869Z,3.10
2019-01-13T20:29:52.383Z,3.60
2019-01-13T20:32:18.921Z,3.27
2019-01-13T20:34:45.557Z,4.30
2019-01-13T20:37:12.297Z,3.90
2019-01-13T20:39:38.896Z,3.33
2019-01-13T20:42:05.595Z,3.10
2019-01-13T20:44:32.433Z,3.37
2019-01-13T20:46:59.182Z,3.80
2019-01-13T20:49:25.936Z,3.77
2019-01-13T20:51:52.721Z,4.07
2019-01-13T20:54:19.383Z,3.13
2019-01-13T20:56:46.127Z,3.70
2019-01-13T20:59:12.848Z,4.27
2019-01-13T21:01:39.614Z,3.63
2019-01-13T21:04:06.387Z,4.00
2019-01-13T21:06:33.192Z,3.90
2019-01-13T21:08:59.798Z,3.60
2019-01-13T21:11:26.572Z,3.93
2019-01-13T21:13:53.324Z,3.80
2019-01-13T21:16:19.997Z,3.77
2019-01-13T21:18:47.564Z,4.20
2019-01-13T21:21:14.312Z,4.07
2019-01-13T21:23:41.141Z,4.00
2019-01-13T21:26:07.885Z,4.20
2019-01-13T21:28:34.574Z,3.47
2019-01-13T21:31:01.093Z,4.03
2019-01-13T21:33:27.731Z,4.17
2019-01-13T21:35:54.489Z,3.70
2019-01-13T21:38:21.153Z,4.50
2019-01-13T21:40:47.841Z,3.83
2019-01-13T21:43:14.501Z,4.20
2019-01-13T21:45:41.203Z,4.33
2019-01-13T21:48:07.932Z,4.93
2019-01-13T21:50:34.727Z,4.77
2019-01-13T21:53:01.420Z,4.90
2019-01-13T21:55:28.008Z,4.10
2019-01-13T21:57:54.486Z,3.83
2019-01-13T22:00:26.870Z,4.63
2019-01-13T22:02:54.451Z,3.83
2019-01-13T22:05:21.683Z,4.87
2019-01-13T22:07:48.877Z,4.30
2019-01-13T22:10:20.817Z,3.87
2019-01-13T22:12:47.431Z,4.03
2019-01-13T22:15:19.052Z,3.57
2019-01-13T22:17:45.788Z,3.60
2019-01-13T22:20:16.336Z,3.57
2019-01-13T22:22:43.022Z,3.40
2019-01-13T22:25:11.119Z,3.43
2019-01-13T22:27:37.955Z,3.57
2019-01-13T22:30:10.018Z,3.33
2019-01-13T22:32:36.701Z,3.37
2019-01-13T22:35:04.297Z,3.17
2019-01-13T22:37:30.832Z,3.83
2019-01-13T22:39:57.542Z,3.00
2019-01-13T22:42:24.203Z,3.40
2019-01-13T22:44:50.923Z,3.70
2019-01-13T22:47:17.461Z,3.70
2019-01-13T22:49:44.132Z,3.97
2019-01-13T22:52:10.769Z,3.30
2019-01-13T22:54:37.314Z,3.60
2019-01-13T22:57:04.426Z,3.90
2019-01-13T22:59:30.953Z,3.97
2019-01-13T23:01:57.539Z,3.63
2019-01-13T23:04:24.201Z,3.10
2019-01-13T23:06:50.899Z,2.80
2019-01-13T23:09:17.444Z,3.37
2019-01-13T23:11:44.003Z,2.87
2019-01-13T23:14:10.691Z,2.90
2019-01-13T23:16:37.767Z,2.17
2019-01-13T23:19:04.511Z,2.30
2019-01-13T23:21:31.345Z,2.13
2019-01-13T23:23:57.913Z,2.40
2019-01-13T23:26:24.416Z,2.10
2019-01-13T23:28:51.033Z,2.23
2019-01-13T23:31:17.665Z,2.00
2019-01-13T23:33:44.321Z,2.20
2019-01-13T23:36:11.053Z,2.57
2019-01-13T23:38:37.542Z,2.50
2019-01-13T23:41:04.140Z,2.70
2019-01-13T23:43:30.865Z,2.30
2019-01-13T23:45:57.501Z,2.73
2019-01-13T23:48:23.914Z,2.90
2019-01-13T23:50:50.297Z,3.07
2019-01-13T23:53:16.677Z,2.77
2019-01-13T23:55:43.028Z,3.50
2019-01-13T23:58:09.542Z,2.93
